createdAt,value
2022-08-22T00:02:33.434Z,59.62
2022-08-22T00:07:17.852Z,60.09
2022-08-22T00:11:35.297Z,60.27
2022-08-22T00:16:08.917Z,60.27
2022-08-22T00:20:28.284Z,60.65
2022-08-22T00:25:24.523Z,60.79
2022-08-22T00:29:43.453Z,60.72
2022-08-22T00:34:15.912Z,61.26
2022-08-22T00:38:35.854Z,61.09
2022-08-22T00:43:10.058Z,61.31
2022-08-22T00:47:49.393Z,61.11
2022-08-22T00:52:22.397Z,61.40
2022-08-22T00:56:55.178Z,61.47
2022-08-22T01:01:11.750Z,61.63
2022-08-22T01:05:40.282Z,62.44
2022-08-22T01:09:54.759Z,62.19
2022-08-22T01:14:15.711Z,62.69
2022-08-22T01:19:01.104Z,62.68
2022-08-22T01:23:47.183Z,63.95
2022-08-22T01:28:27.342Z,63.18
2022-08-22T01:33:12.975Z,63.49
2022-08-22T01:37:52.508Z,63.46
2022-08-22T01:42:41.932Z,63.57
2022-08-22T01:47:06.925Z,64.25
2022-08-22T01:51:32.522Z,63.84
2022-08-22T01:56:12.954Z,63.99
2022-08-22T02:00:35.399Z,64.16
2022-08-22T02:05:06.233Z,64.12
2022-08-22T02:09:38.691Z,64.51
2022-08-22T02:13:56.986Z,64.28
2022-08-22T02:18:12.314Z,64.57
2022-08-22T02:23:08.731Z,64.63
2022-08-22T02:27:43.970Z,64.64
2022-08-22T02:32:02.516Z,65.17
2022-08-22T02:36:33.990Z,65.18
2022-08-22T02:41:14.392Z,64.87
2022-08-22T02:45:46.217Z,64.90
2022-08-22T02:50:15.750Z,65.21
2022-08-22T02:54:41.882Z,65.07
2022-08-22T02:59:00.059Z,65.72
2022-08-22T03:03:20.912Z,65.70
2022-08-22T03:07:50.993Z,66.26
2022-08-22T03:12:20.148Z,65.85
2022-08-22T03:16:54.979Z,65.99
2022-08-22T03:21:19.050Z,66.12
2022-08-22T03:25:30.546Z,66.27
2022-08-22T03:29:49.975Z,66.20
2022-08-22T03:34:27.061Z,67.01
2022-08-22T03:38:48.834Z,66.55
2022-08-22T03:43:22.142Z,66.55
2022-08-22T03:47:34.153Z,66.46
2022-08-22T03:52:04.403Z,67.02
2022-08-22T03:56:21.984Z,66.82
2022-08-22T04:01:07.947Z,66.75
2022-08-22T04:05:55.824Z,67.42
2022-08-22T04:10:42.438Z,67.38
2022-08-22T04:15:15.825Z,67.05
2022-08-22T04:19:42.622Z,67.05
2022-08-22T04:24:14.370Z,67.41
2022-08-22T04:28:35.152Z,67.45
2022-08-22T04:33:08.614Z,67.39
2022-08-22T04:37:43.708Z,67.38
2022-08-22T04:42:29.153Z,67.42
2022-08-22T04:47:29.936Z,67.43
2022-08-22T04:51:57.360Z,67.53
2022-08-22T04:56:30.147Z,67.15
2022-08-22T05:01:08.673Z,67.21
2022-08-22T05:05:37.819Z,67.33
2022-08-22T05:09:56.462Z,67.75
2022-08-22T05:14:17.869Z,67.74
2022-08-22T05:18:35.402Z,67.94
2022-08-22T05:22:52.957Z,68.41
2022-08-22T05:27:13.559Z,68.19
2022-08-22T05:31:30.243Z,67.90
2022-08-22T05:35:58.259Z,67.76
2022-08-22T05:40:19.689Z,67.95
2022-08-22T05:44:34.325Z,67.68
2022-08-22T05:48:57.354Z,67.67
2022-08-22T05:53:15.103Z,67.48
2022-08-22T05:57:30.655Z,67.17
2022-08-22T06:02:06.038Z,67.06
2022-08-22T06:06:19.825Z,66.96
2022-08-22T06:10:39.834Z,66.84
2022-08-22T06:15:12.156Z,66.74
2022-08-22T06:19:24.446Z,66.51
2022-08-22T06:23:48.168Z,66.35
2022-08-22T06:28:06.442Z,66.17
2022-08-22T06:32:44.554Z,65.65
2022-08-22T06:37:03.602Z,65.08
2022-08-22T06:41:15.336Z,64.71
2022-08-22T06:45:32.780Z,64.28
2022-08-22T06:49:45.882Z,64.07
2022-08-22T06:54:03.578Z,63.53
2022-08-22T06:58:19.694Z,63.07
2022-08-22T07:02:38.653Z,62.73
2022-08-22T07:06:51.464Z,62.58
2022-08-22T07:11:32.596Z,62.17
2022-08-22T07:15:53.632Z,61.39
2022-08-22T07:20:25.523Z,60.72
2022-08-22T07:24:44.580Z,59.87
2022-08-22T07:29:02.037Z,59.11
2022-08-22T07:33:41.224Z,58.35
2022-08-22T07:38:17.776Z,57.76
2022-08-22T07:42:56.927Z,57.39
2022-08-22T07:47:18.048Z,57.09
2022-08-22T07:51:46.775Z,56.59
2022-08-22T07:56:01.079Z,55.56
2022-08-22T08:00:16.937Z,53.81
2022-08-22T08:04:36.868Z,52.90
2022-08-22T08:08:52.350Z,51.32
2022-08-22T08:13:10.766Z,50.50
2022-08-22T08:17:31.397Z,48.76
2022-08-22T08:21:50.936Z,43.98
2022-08-22T08:26:10.082Z,41.48
2022-08-22T08:30:40.328Z,40.08
2022-08-22T08:34:52.471Z,39.20
2022-08-22T08:39:14.095Z,38.72
2022-08-22T08:43:40.623Z,38.68
2022-08-22T08:47:58.197Z,38.27
2022-08-22T08:52:31.918Z,37.96
2022-08-22T08:57:12.943Z,37.73
2022-08-22T09:01:54.340Z,37.63
2022-08-22T09:06:24.900Z,38.33
2022-08-22T09:11:10.166Z,37.96
2022-08-22T09:16:11.146Z,36.83
2022-08-22T09:21:11.315Z,35.73
2022-08-22T09:25:56.272Z,35.00
2022-08-22T09:30:13.245Z,33.61
2022-08-22T09:34:34.713Z,31.51
2022-08-22T09:38:56.672Z,30.93
2022-08-22T09:43:21.243Z,30.30
2022-08-22T09:47:59.003Z,29.43
2022-08-22T09:52:46.981Z,29.09
2022-08-22T09:57:04.152Z,28.76
2022-08-22T10:02:06.149Z,28.99
2022-08-22T10:06:37.096Z,28.84
2022-08-22T10:10:57.903Z,29.10
2022-08-22T10:15:20.867Z,28.95
2022-08-22T10:19:47.055Z,28.03
2022-08-22T10:24:25.726Z,27.53
2022-08-22T10:29:06.787Z,25.97
2022-08-22T10:33:32.397Z,26.12
2022-08-22T10:37:53.661Z,25.83
2022-08-22T10:42:27.876Z,25.63
2022-08-22T10:46:54.951Z,26.19
2022-08-22T10:51:15.102Z,25.68
2022-08-22T10:55:28.683Z,25.70
2022-08-22T10:59:58.904Z,25.42
2022-08-22T11:04:47.611Z,26.07
2022-08-22T11:09:14.561Z,26.67
2022-08-22T11:13:45.418Z,26.98
2022-08-22T11:18:00.367Z,26.69
2022-08-22T11:22:25.483Z,26.87
2022-08-22T11:26:47.478Z,26.18
2022-08-22T11:31:10.592Z,25.83
2022-08-22T11:35:30.161Z,25.75
2022-08-22T11:40:04.482Z,25.20
2022-08-22T11:44:27.560Z,24.56
2022-08-22T11:49:04.573Z,24.38
2022-08-22T11:54:07.565Z,24.52
2022-08-22T11:58:48.443Z,24.63
2022-08-22T12:03:26.683Z,24.96
2022-08-22T12:07:49.046Z,25.54
2022-08-22T12:12:37.198Z,26.24
2022-08-22T12:17:55.765Z,26.54
2022-08-22T12:22:34.580Z,27.09
2022-08-22T12:27:28.678Z,27.49
2022-08-22T12:31:56.166Z,28.17
2022-08-22T12:36:18.718Z,28.32
2022-08-22T12:40:36.447Z,28.00
2022-08-22T12:45:25.863Z,27.66
2022-08-22T12:50:13.138Z,27.46
2022-08-22T12:54:56.704Z,28.17
2022-08-22T12:59:24.120Z,27.88
2022-08-22T13:03:43.617Z,27.69
2022-08-22T13:08:04.133Z,27.45
2022-08-22T13:12:23.362Z,27.61
2022-08-22T13:16:49.107Z,27.55
2022-08-22T13:21:09.476Z,27.87
2022-08-22T13:25:27.135Z,28.44
2022-08-22T13:29:47.227Z,28.25
2022-08-22T13:34:03.803Z,28.13
2022-08-22T13:38:28.085Z,27.89
2022-08-22T13:42:48.026Z,27.69
2022-08-22T13:47:14.377Z,27.95
2022-08-22T13:51:40.136Z,27.91
2022-08-22T13:56:01.126Z,28.17
2022-08-22T14:00:22.398Z,28.14
2022-08-22T14:04:43.879Z,28.45
2022-08-22T14:09:02.491Z,28.07
2022-08-22T14:13:49.479Z,27.80
2022-08-22T14:18:15.419Z,27.94
2022-08-22T14:22:34.914Z,27.97
2022-08-22T14:26:58.372Z,28.16
2022-08-22T14:31:13.855Z,28.26
2022-08-22T14:35:37.991Z,28.64
2022-08-22T14:40:10.599Z,29.29
2022-08-22T14:44:30.973Z,29.59
2022-08-22T14:49:11.193Z,29.24
2022-08-22T14:53:33.625Z,28.84
2022-08-22T14:57:56.571Z,28.94
2022-08-22T15:02:26.557Z,28.67
2022-08-22T15:06:47.697Z,28.59
2022-08-22T15:11:14.070Z,28.66
2022-08-22T15:15:54.417Z,28.71
2022-08-22T15:20:28.524Z,28.76
2022-08-22T15:24:49.437Z,29.20
2022-08-22T15:29:22.240Z,29.20
2022-08-22T15:33:43.226Z,29.47
2022-08-22T15:37:59.424Z,29.59
2022-08-22T15:42:26.067Z,29.37
2022-08-22T15:46:44.589Z,29.79
2022-08-22T15:51:10.411Z,30.12
2022-08-22T15:55:26.678Z,30.07
2022-08-22T15:59:54.459Z,30.35
2022-08-22T16:04:12.680Z,30.16
2022-08-22T16:08:48.259Z,30.10
2022-08-22T16:13:27.281Z,29.97
2022-08-22T16:17:43.849Z,30.02
2022-08-22T16:21:55.375Z,30.26
2022-08-22T16:26:08.956Z,30.00
2022-08-22T16:30:32.726Z,30.01
2022-08-22T16:34:45.837Z,29.70
2022-08-22T16:38:57.625Z,29.75
2022-08-22T16:43:18.174Z,29.96
2022-08-22T16:47:32.720Z,29.93
2022-08-22T16:52:24.679Z,30.21
2022-08-22T16:56:56.393Z,30.33
2022-08-22T17:01:53.095Z,30.26
2022-08-22T17:06:37.067Z,30.51
2022-08-22T17:11:15.424Z,30.67
2022-08-22T17:15:45.409Z,30.94
2022-08-22T17:20:13.664Z,30.77
2022-08-22T17:24:35.150Z,30.94
2022-08-22T17:29:05.081Z,31.23
2022-08-22T17:33:40.536Z,30.90
2022-08-22T17:38:25.526Z,30.81
2022-08-22T17:42:49.449Z,31.15
2022-08-22T17:47:09.855Z,31.67
2022-08-22T17:51:28.589Z,31.59
2022-08-22T17:56:06.957Z,32.33
2022-08-22T18:00:39.284Z,32.21
2022-08-22T18:05:07.670Z,32.55
2022-08-22T18:09:38.390Z,32.82
2022-08-22T18:14:28.246Z,33.73
2022-08-22T18:19:04.630Z,34.14
2022-08-22T18:23:35.398Z,34.65
2022-08-22T18:27:59.225Z,35.10
2022-08-22T18:32:19.582Z,35.05
2022-08-22T18:36:45.201Z,35.29
2022-08-22T18:41:09.041Z,35.67
2022-08-22T18:45:45.587Z,36.03
2022-08-22T18:49:57.918Z,36.07
2022-08-22T18:54:11.077Z,36.52
2022-08-22T18:58:41.321Z,36.84
2022-08-22T19:03:20.903Z,37.38
2022-08-22T19:07:59.972Z,38.14
2022-08-22T19:12:23.700Z,38.61
2022-08-22T19:16:50.274Z,39.00
2022-08-22T19:21:53.100Z,39.28
2022-08-22T19:26:24.910Z,39.62
2022-08-22T19:30:41.559Z,39.87
2022-08-22T19:35:18.150Z,40.24
2022-08-22T19:39:41.988Z,40.56
2022-08-22T19:43:54.162Z,41.61
2022-08-22T19:48:13.724Z,41.72
2022-08-22T19:52:47.453Z,42.41
2022-08-22T19:57:15.709Z,43.01
2022-08-22T20:01:36.491Z,43.43
2022-08-22T20:06:43.071Z,43.95
2022-08-22T20:11:37.659Z,44.33
2022-08-22T20:16:16.319Z,45.19
2022-08-22T20:20:36.028Z,45.81
2022-08-22T20:24:56.087Z,46.04
2022-08-22T20:29:08.136Z,46.01
2022-08-22T20:33:28.384Z,46.80
2022-08-22T20:38:05.848Z,46.90
2022-08-22T20:42:17.335Z,47.19
2022-08-22T20:46:53.490Z,47.04
2022-08-22T20:51:08.858Z,48.14
2022-08-22T20:55:27.289Z,48.12
2022-08-22T20:59:52.775Z,47.90
2022-08-22T21:04:04.941Z,47.72
2022-08-22T21:08:26.464Z,47.72
2022-08-22T21:12:38.190Z,47.42
2022-08-22T21:16:50.445Z,47.21
2022-08-22T21:21:17.458Z,47.14
2022-08-22T21:25:30.159Z,47.02
2022-08-22T21:29:46.423Z,47.00
2022-08-22T21:33:59.794Z,46.83
2022-08-22T21:38:17.154Z,46.65
2022-08-22T21:42:40.648Z,46.79
2022-08-22T21:46:53.144Z,46.60
2022-08-22T21:51:21.718Z,46.83
2022-08-22T21:55:43.049Z,46.75
2022-08-22T21:59:58.902Z,47.39
2022-08-22T22:04:11.529Z,47.25
2022-08-22T22:08:23.445Z,46.99
2022-08-22T22:12:43.066Z,47.04
2022-08-22T22:16:54.707Z,46.97
2022-08-22T22:21:06.710Z,46.81
2022-08-22T22:25:40.346Z,47.05
2022-08-22T22:29:51.814Z,46.99
2022-08-22T22:34:03.422Z,47.20
2022-08-22T22:38:16.354Z,47.60
2022-08-22T22:42:30.050Z,47.52
2022-08-22T22:46:41.955Z,47.60
2022-08-22T22:50:54.121Z,47.63
2022-08-22T22:55:07.599Z,47.65
2022-08-22T22:59:19.206Z,47.62
2022-08-22T23:03:36.459Z,47.77
2022-08-22T23:07:48.157Z,47.84
2022-08-22T23:12:28.345Z,48.27
2022-08-22T23:16:40.623Z,48.42
2022-08-22T23:20:52.287Z,48.73
2022-08-22T23:25:05.009Z,48.94
2022-08-22T23:29:16.742Z,49.18
2022-08-22T23:33:28.377Z,49.45
2022-08-22T23:37:40.042Z,49.88
2022-08-22T23:41:51.945Z,49.66
2022-08-22T23:46:03.750Z,50.10
2022-08-22T23:50:15.410Z,50.17
2022-08-22T23:54:27.303Z,50.52
2022-08-22T23:58:38.984Z,50.49
